Pecos, New Mexico
Current Conditions -  °F | °C
As of 10:53 PM on Friday 28 Nov 2014 (Local Time) from KSAF Reporting Station
Clear Clear  
Wind Chill:   Ceiling: Unl
Heat Index:   Visibility: 10mi
Dew Point: -9°   Wind: 0mph
Humidity: 35%   Direction: NA
Pressure: 30.09"   Gusts: NA
Location:  35.57°N, 105.68°W
Report Text: KSAF 290553Z AUTO 00000KT 10SM CLR 05/M09 A3009 RMK AO2 SLP142 T00501094 10117 20022 58006
Loading
Personal Weather Stations






























Interactive Weather Map New forecast layout! Learn more

10-Day Weather Forecast

Advertisements
Track Severe Weather on mobile